Time;durP1;ratioP1;P1;durP2;ratioP2;P2;SDS_P1;SDS_P2;PMS_P1;PMS_P2;Temp;Humidity;BMP_temperature;BMP_pressure;BME280_temperature;BME280_humidity;BME280_pressure;Samples;Min_cycle;Max_cycle;Signal;HPM_P1;HPM_P2
2022/02/24 00:02:48;;;;;;;;;44.50;40.50;;;;;4.97;75.01;101705.44;4937626;29;11791;-77
2022/02/24 00:05:16;;;;;;;;;37.00;37.00;;;;;5.11;75.09;101694.81;4926767;29;11617;-76
2022/02/24 00:08:12;;;;;;;;;41.75;37.50;;;;;5.02;74.87;101691.75;4947607;29;12529;-76
2022/02/24 00:10:40;;;;;;;;;44.00;41.50;;;;;5.06;74.86;101690.16;4936376;28;11742;-76
2022/02/24 00:13:35;;;;;;;;;40.75;39.75;;;;;5.07;74.45;101700.03;4936596;29;11676;-76
2022/02/24 00:16:31;;;;;;;;;44.25;42.25;;;;;5.06;74.61;101698.38;4945758;29;11596;-76
2022/02/24 00:19:14;;;;;;;;;45.50;40.75;;;;;4.83;74.96;101705.13;4949913;29;11715;-76
2022/02/24 00:22:09;;;;;;;;;34.25;32.00;;;;;4.82;75.34;101703.47;4948251;29;11719;-76
2022/02/24 00:24:37;;;;;;;;;51.00;44.00;;;;;4.72;75.36;101697.94;4944212;29;12423;-76
2022/02/24 00:27:34;;;;;;;;;34.00;34.00;;;;;4.56;76.03;101697.06;4930643;29;11755;-76
2022/02/24 00:30:15;;;;;;;;;43.25;42.00;;;;;4.53;76.28;101686.63;4931089;29;11662;-77
2022/02/24 00:32:43;;;;;;;;;51.00;46.00;;;;;4.49;76.49;101690.97;4914893;29;11619;-77
2022/02/24 00:35:18;;;;;;;;;42.25;39.50;;;;;4.49;76.41;101690.16;4938409;28;11630;-77
2022/02/24 00:38:14;;;;;;;;;39.75;39.75;;;;;4.50;76.69;101689.06;4940539;28;11699;-77
2022/02/24 00:40:57;;;;;;;;;43.75;41.00;;;;;4.49;76.51;101682.75;4953943;28;11718;-78
2022/02/24 00:43:25;;;;;;;;;47.00;43.50;;;;;4.43;76.86;101689.31;4937218;28;11605;-77
2022/02/24 00:46:21;;;;;;;;;55.50;47.25;;;;;4.38;77.28;101692.84;4952935;28;11621;-77
2022/02/24 00:49:18;;;;;;;;;54.50;46.00;;;;;4.28;77.10;101689.22;4953230;28;11648;-77
2022/02/24 00:52:13;;;;;;;;;48.50;42.50;;;;;4.19;77.83;101688.88;4940297;28;12536;-77
2022/02/24 00:54:48;;;;;;;;;51.50;46.00;;;;;4.14;78.38;101686.09;4952664;28;11691;-76
2022/02/24 00:57:43;;;;;;;;;53.50;43.75;;;;;4.05;78.17;101691.25;4934015;29;11633;-77
2022/02/24 01:00:39;;;;;;;;;47.75;44.75;;;;;3.93;79.02;101690.63;4921715;29;11610;-77
2022/02/24 01:03:34;;;;;;;;;44.25;41.00;;;;;3.78;79.51;101688.59;4920863;29;11725;-77
2022/02/24 01:06:30;;;;;;;;;57.00;45.33;;;;;3.58;80.52;101694.69;4939178;28;11709;-76
2022/02/24 01:09:25;;;;;;;;;59.50;48.50;;;;;3.29;81.17;101696.88;4952675;28;11587;-77
2022/02/24 01:12:21;;;;;;;;;61.67;49.00;;;;;3.28;81.79;101692.50;4939825;28;11586;-77
2022/02/24 01:14:50;;;;;;;;;67.67;55.00;;;;;3.28;81.19;101694.41;4953675;28;11686;-77
2022/02/24 01:17:22;;;;;;;;;70.33;55.67;;;;;3.29;81.40;101693.31;4951801;28;11609;-77
2022/02/24 01:20:04;;;;;;;;;82.33;63.33;;;;;3.23;80.83;101695.19;4952978;28;11637;-77
2022/02/24 01:23:00;;;;;;;;;78.00;60.00;;;;;3.30;81.44;101692.25;4952444;28;8863;-77
2022/02/24 01:25:28;;;;;;;;;67.67;54.00;;;;;3.40;81.07;101699.72;4953535;28;8862;-77
2022/02/24 01:28:23;;;;;;;;;60.33;49.67;;;;;3.56;80.82;101696.88;4919459;29;8869;-76
2022/02/24 01:31:19;;;;;;;;;74.33;60.00;;;;;3.65;81.00;101689.03;4920398;29;11742;-76
2022/02/24 01:34:16;;;;;;;;;89.67;67.33;;;;;3.43;80.30;101701.94;4946164;28;9645;-77
2022/02/24 01:37:12;;;;;;;;;84.33;66.00;;;;;3.29;80.75;101696.03;4951051;28;8852;-77
2022/02/24 01:39:40;;;;;;;;;92.00;75.33;;;;;3.27;81.99;101700.94;4953086;28;8868;-77
2022/02/24 01:42:35;;;;;;;;;79.00;64.00;;;;;3.37;81.47;101711.16;4952083;28;8911;-77
2022/02/24 01:45:31;;;;;;;;;87.67;67.33;;;;;3.27;81.53;101703.69;4951097;28;8999;-77
2022/02/24 01:48:27;;;;;;;;;78.67;61.67;;;;;3.06;82.64;101699.91;4935224;28;8884;-76
2022/02/24 01:51:23;;;;;;;;;82.67;63.00;;;;;3.14;82.62;101704.91;4952119;28;8930;-76
2022/02/24 01:53:51;;;;;;;;;78.67;64.00;;;;;3.14;82.00;101704.09;4943923;29;8900;-77
2022/02/24 01:56:46;;;;;;;;;80.67;65.33;;;;;3.14;82.38;101712.28;4937390;28;8896;-77
2022/02/24 01:59:42;;;;;;;;;78.33;61.00;;;;;2.84;83.05;101716.34;4952108;28;10031;-77
2022/02/24 02:02:38;;;;;;;;;86.00;66.00;;;;;2.96;83.80;101722.47;4952154;28;8885;-76
2022/02/24 02:05:34;;;;;;;;;73.33;61.33;;;;;2.94;82.97;101730.13;4921975;29;8889;-76
2022/02/24 02:08:30;;;;;;;;;79.33;64.33;;;;;2.71;83.99;101733.91;4931059;29;8946;-77
2022/02/24 02:11:26;;;;;;;;;84.00;66.00;;;;;2.68;84.42;101739.88;4936654;28;8859;-77
2022/02/24 02:14:21;;;;;;;;;86.33;69.00;;;;;2.47;84.40;101752.44;4934480;28;9020;-77
2022/02/24 02:17:17;;;;;;;;;90.33;69.33;;;;;2.53;85.22;101757.94;4918278;29;9969;-76
2022/02/24 02:19:46;;;;;;;;;78.33;61.00;;;;;2.40;86.05;101757.25;4933160;29;8861;-77
2022/02/24 02:22:43;;;;;;;;;75.67;64.67;;;;;2.53;86.25;101774.34;4932727;28;8861;-76
2022/02/24 02:25:38;;;;;;;;;72.33;57.00;;;;;2.64;85.48;101766.06;4934695;29;8846;-77
2022/02/24 02:28:06;;;;;;;;;78.67;63.67;;;;;2.78;84.43;101767.34;4932723;29;8839;-77
2022/02/24 02:30:47;;;;;;;;;20.67;15.00;;;;;2.73;83.93;101767.25;4932245;29;8877;-77
2022/02/24 02:33:43;;;;;;;;;72.33;60.00;;;;;2.66;83.65;101765.78;4919452;29;8873;-77
2022/02/24 02:36:40;;;;;;;;;70.00;59.33;;;;;2.63;83.70;101772.59;4932368;29;8877;-77
2022/02/24 02:39:17;;;;;;;;;74.00;61.00;;;;;2.68;83.71;101771.81;4932480;29;8884;-76
2022/02/24 02:42:14;;;;;;;;;73.33;59.67;;;;;2.69;83.39;101782.53;4932099;29;8869;-76
2022/02/24 02:45:10;;;;;;;;;78.67;59.67;;;;;2.50;83.11;101773.75;4930975;29;8863;-76
2022/02/24 02:48:06;;;;;;;;;76.33;60.00;;;;;2.32;84.01;101775.94;4929159;29;8920;-77
2022/02/24 02:51:02;;;;;;;;;52.67;45.00;;;;;2.46;84.46;101778.09;4919655;29;8884;-76
2022/02/24 02:53:30;;;;;;;;;69.33;56.00;;;;;2.45;84.91;101773.72;4916332;29;8882;-76
2022/02/24 02:55:58;;;;;;;;;75.67;61.00;;;;;2.40;85.04;101776.34;4931582;29;8880;-77
2022/02/24 02:58:53;;;;;;;;;69.00;57.00;;;;;2.41;83.99;101786.19;4917698;29;9499;-77
2022/02/24 03:01:21;;;;;;;;;74.33;59.33;;;;;2.53;84.07;101782.53;4931286;29;8858;-76
2022/02/24 03:03:48;;;;;;;;;74.67;61.67;;;;;2.27;84.74;101778.59;4917184;29;8946;-77
2022/02/24 03:06:44;;;;;;;;;76.67;64.00;;;;;2.30;84.65;101783.53;4919651;28;8959;-76
2022/02/24 03:09:39;;;;;;;;;78.33;61.00;;;;;2.30;84.99;101787.13;4950713;28;8999;-76
2022/02/24 03:12:21;;;;;;;;;75.33;61.33;;;;;2.14;85.81;101779.75;4951314;28;9001;-76
2022/02/24 03:15:18;;;;;;;;;84.67;69.00;;;;;2.05;86.12;101787.50;4937803;28;8854;-77
2022/02/24 03:18:13;;;;;;;;;67.00;54.00;;;;;2.02;86.05;101789.94;4940192;29;9001;-76
2022/02/24 03:21:09;;;;;;;;;78.33;61.00;;;;;2.09;85.86;101787.88;4932012;29;8905;-76
2022/02/24 03:24:06;;;;;;;;;69.33;51.67;;;;;2.04;85.66;101787.78;4935975;29;8875;-77
2022/02/24 03:27:03;;;;;;;;;88.67;70.33;;;;;2.11;85.04;101792.00;4934441;29;8863;-77
2022/02/24 03:29:59;;;;;;;;;88.00;69.00;;;;;1.98;85.63;101789.56;4935346;29;8849;-77
2022/02/24 03:32:54;;;;;;;;;84.00;66.67;;;;;2.03;85.68;101797.03;4934517;29;8963;-76
2022/02/24 03:35:50;;;;;;;;;82.67;62.33;;;;;1.99;86.32;101799.41;4935888;29;8861;-76
2022/02/24 03:38:46;;;;;;;;;83.00;66.00;;;;;1.79;86.67;101799.91;4946380;28;8855;-76
2022/02/24 03:41:41;;;;;;;;;83.00;65.67;;;;;1.71;87.04;101796.75;4954342;28;8878;-77
2022/02/24 03:44:37;;;;;;;;;73.67;62.67;;;;;1.80;87.01;101787.09;4954399;28;8859;-76
2022/02/24 03:47:32;;;;;;;;;91.67;73.33;;;;;1.91;86.72;101788.91;4953650;28;8865;-76
2022/02/24 03:50:28;;;;;;;;;87.00;67.67;;;;;2.19;85.75;101783.38;4941407;28;8876;-77
2022/02/24 03:53:23;;;;;;;;;88.33;68.00;;;;;2.32;85.36;101792.34;4943706;28;8871;-76
2022/02/24 03:56:19;;;;;;;;;89.33;66.33;;;;;2.12;85.48;101787.34;4951819;28;8854;-76
2022/02/24 03:59:14;;;;;;;;;89.67;67.67;;;;;2.01;86.37;101800.00;4939540;28;8854;-77
2022/02/24 04:02:11;;;;;;;;;87.00;68.00;;;;;2.09;86.07;101796.06;4940776;28;8823;-75
2022/02/24 04:05:09;;;;;;;;;83.67;64.00;;;;;2.01;85.94;101808.19;4945013;29;8846;-77
2022/02/24 04:07:45;;;;;;;;;82.67;64.33;;;;;1.93;86.38;101801.25;4935453;29;8850;-76
2022/02/24 04:10:40;;;;;;;;;84.33;68.00;;;;;1.80;86.81;101815.19;4947715;28;8839;-77
2022/02/24 04:13:22;;;;;;;;;86.33;68.00;;;;;1.63;86.96;101808.88;4945355;29;8841;-76
2022/02/24 04:15:50;;;;;;;;;94.33;71.33;;;;;1.49;88.22;101813.78;4957297;28;8958;-76
